MDT,Max TemperatureF,Mean TemperatureF,Min TemperatureF,Max Dew PointF,MeanDew PointF,Min DewpointF,Max Humidity, Mean Humidity, Min Humidity, Max Sea Level PressureIn, Mean Sea Level PressureIn, Min Sea Level PressureIn, Max VisibilityMiles, Mean VisibilityMiles, Min VisibilityMiles, Max Wind SpeedMPH, Mean Wind SpeedMPH, Max Gust SpeedMPH,PrecipitationIn, CloudCover, Events, WindDirDegrees
2013-3-1,42,31,20,25,22,18,84,68,51,30.37,30.32,30.23,10,10,10,24,12,31,0.00,2,,319
2013-3-2,59,45,30,37,30,25,82,59,36,30.31,30.19,30.05,10,10,10,20,11,25,0.00,2,,294
2013-3-3,67,50,33,33,28,24,82,52,22,30.01,29.73,29.60,10,10,10,17,9,22,0.00,0,,255
2013-3-4,45,33,20,32,26,12,92,67,41,30.26,29.92,29.62,10,7,0,28,17,33,0.04,5,Fog-Snow,348
2013-3-5,41,28,14,19,14,8,81,58,34,30.44,30.37,30.27,10,10,10,23,12,28,0.00,0,,314
2013-3-6,60,40,19,25,20,15,84,55,26,30.30,30.09,29.88,10,10,10,25,18,31,0.00,0,,158
2013-3-7,58,40,21,30,25,18,88,61,33,30.04,29.95,29.86,10,10,10,21,8,24,0.00,0,,89
2013-3-8,62,44,26,48,35,25,93,66,39,30.00,29.80,29.57,10,9,5,25,9,30,0.00,2,,81
2013-3-9,50,39,27,43,32,26,100,90,80,29.95,29.68,29.53,10,3,0,46,22,56,0.16,7,Fog-Snow,331
2013-3-10,29,22,15,27,17,11,100,79,58,30.17,30.09,29.90,10,8,1,37,21,45,0.01,2,,344
2013-3-11,52,34,16,32,24,11,89,65,41,30.12,30.04,29.94,10,10,10,25,12,32,T,3,Rain,311
2013-3-12,47,36,25,30,23,20,92,63,34,30.37,30.29,30.14,10,10,10,24,11,29,0.00,2,,309
2013-3-13,67,47,27,30,25,20,75,49,22,30.32,30.23,30.15,10,10,10,23,11,28,0.00,0,,241
2013-3-14,74,55,35,31,26,21,70,43,15,30.25,30.13,30.02,10,10,10,17,9,22,0.00,0,,276
2013-3-15,80,63,45,33,24,15,45,27,9,30.00,29.83,29.73,10,10,10,25,11,33,0.00,0,,272
2013-3-16,47,38,28,34,28,23,82,66,49,30.05,29.97,29.82,10,10,10,28,10,32,0.00,4,,67
2013-3-17,55,40,24,37,26,21,88,63,38,29.96,29.78,29.55,10,10,9,35,18,41,0.01,3,Rain,162
2013-3-18,53,36,19,26,13,1,85,49,13,29.99,29.94,29.87,10,10,10,26,12,37,0.00,4,,326
2013-3-19,51,35,19,17,12,7,81,49,16,30.38,30.17,29.99,10,10,10,22,11,30,0.00,0,,34
2013-3-20,51,32,12,25,17,11,88,56,24,30.41,30.15,29.75,10,10,10,30,15,38,0.00,1,,174
2013-3-21,49,34,19,34,25,16,100,68,36,29.88,29.75,29.64,10,8,2,20,9,25,0.11,5,Rain-Snow,111
2013-3-22,51,40,28,32,28,22,100,65,30,29.92,29.85,29.75,10,6,1,25,10,30,0.38,6,Snow,311
2013-3-23,31,22,12,30,23,13,100,90,80,30.25,29.97,29.83,10,2,0,35,20,41,0.63,8,Fog-Snow,39
2013-3-24,27,15,2,19,9,-1,88,76,63,30.38,30.29,30.15,10,10,4,18,12,22,T,1,Snow,311
2013-3-25,25,13,1,15,6,-3,87,75,62,30.50,30.45,30.39,10,10,10,20,12,22,0.00,0,,296
2013-3-26,40,24,8,29,18,0,82,72,61,30.43,30.22,30.06,10,10,10,21,10,24,0.00,2,,175
2013-3-27,48,34,20,36,28,18,92,74,56,30.19,30.13,30.03,10,10,10,14,5,16,0.00,0,,360
2013-3-28,61,44,27,39,32,25,89,63,36,30.18,30.12,30.03,10,10,10,16,9,18,0.00,1,,178
2013-3-29,70,54,37,44,40,33,85,60,35,30.12,30.04,29.94,10,10,10,22,11,25,T,1,,194
2013-3-30,67,53,38,45,36,30,93,60,26,30.12,30.02,29.93,10,10,10,28,11,35,0.11,1,Rain,332
2013-3-31,68,51,33,39,31,26,92,57,22,30.12,30.02,29.88,10,10,10,21,10,23,0.00,0,,272